Time;durP1;ratioP1;P1;durP2;ratioP2;P2;SDS_P1;SDS_P2;PMS_P1;PMS_P2;Temp;Humidity;BMP_temperature;BMP_pressure;BME280_temperature;BME280_humidity;BME280_pressure;Samples;Min_cycle;Max_cycle;Signal;HPM_P1;HPM_P2
2023/07/17 00:01:21;;;;;;;3.30;2.17;;;;;;;21.21;50.15;100561.06;10485772;28;20037;-73
2023/07/17 00:06:24;;;;;;;1.73;1.63;;;;;;;21.11;50.11;100544.78;10482414;28;20044;-74
2023/07/17 00:11:26;;;;;;;2.78;2.00;;;;;;;21.13;49.89;100548.03;10467070;28;20052;-74
2023/07/17 00:16:28;;;;;;;2.78;1.80;;;;;;;21.06;49.40;100537.50;10472170;28;20045;-73
2023/07/17 00:21:30;;;;;;;1.88;1.58;;;;;;;21.08;49.62;100540.75;10456600;28;20049;-73
2023/07/17 00:26:33;;;;;;;2.00;1.80;;;;;;;21.03;49.65;100531.81;10472665;28;20052;-74
2023/07/17 00:31:35;;;;;;;1.60;1.50;;;;;;;21.07;49.84;100536.34;10472247;28;20119;-73
2023/07/17 00:36:38;;;;;;;2.22;1.63;;;;;;;21.05;49.87;100521.13;10458382;28;20080;-73
2023/07/17 00:41:40;;;;;;;3.42;1.75;;;;;;;21.04;49.26;100525.88;10469654;28;20036;-74
2023/07/17 00:46:43;;;;;;;2.53;1.65;;;;;;;21.07;49.45;100524.34;10467869;28;20056;-74
2023/07/17 00:51:46;;;;;;;1.90;1.42;;;;;;;20.95;49.82;100510.44;10484596;28;20033;-74
2023/07/17 00:56:49;;;;;;;1.90;1.73;;;;;;;21.03;49.41;100526.25;10467244;28;20045;-74
2023/07/17 01:01:53;;;;;;;4.10;1.70;;;;;;;21.01;49.42;100523.81;10445336;28;20049;-74
2023/07/17 01:06:55;;;;;;;1.83;1.48;;;;;;;20.99;49.45;100522.50;10482961;28;20048;-74
2023/07/17 01:11:58;;;;;;;1.48;1.38;;;;;;;21.02;49.30;100521.84;10485053;28;20049;-74
2023/07/17 01:17:00;;;;;;;3.10;2.00;;;;;;;21.03;49.66;100518.69;10464702;28;20055;-74
2023/07/17 01:22:05;;;;;;;3.13;1.83;;;;;;;20.92;50.24;100519.53;10485133;28;20525;-73
2023/07/17 01:27:08;;;;;;;2.95;1.70;;;;;;;21.04;49.13;100523.09;10482248;28;20415;-74
2023/07/17 01:32:11;;;;;;;2.03;1.80;;;;;;;21.06;49.47;100519.94;10450033;28;20041;-73
2023/07/17 01:37:13;;;;;;;2.45;1.70;;;;;;;21.10;49.69;100534.00;10426872;28;20400;-73
2023/07/17 01:42:15;;;;;;;1.95;1.50;;;;;;;21.08;49.74;100539.94;10444511;28;20048;-73
2023/07/17 01:47:18;;;;;;;2.35;1.73;;;;;;;21.09;49.95;100533.19;10445593;28;20064;-73
2023/07/17 01:52:20;;;;;;;4.32;1.70;;;;;;;21.03;50.46;100538.22;10482926;28;20037;-73
2023/07/17 01:57:24;;;;;;;2.70;2.10;;;;;;;20.84;51.21;100531.66;10466451;28;20047;-73
2023/07/17 02:02:26;;;;;;;2.10;1.90;;;;;;;20.71;52.33;100525.28;10464767;28;20071;-73
2023/07/17 02:07:28;;;;;;;2.85;1.75;;;;;;;20.64;53.83;100517.50;10466914;28;20041;-73
2023/07/17 02:12:30;;;;;;;2.08;1.88;;;;;;;20.69;54.51;100513.69;10465396;28;20108;-73
2023/07/17 02:17:35;;;;;;;3.60;2.20;;;;;;;20.80;54.82;100508.41;10478227;28;20048;-74
2023/07/17 02:22:37;;;;;;;3.60;2.00;;;;;;;20.88;54.69;100505.47;10483009;28;20037;-74
2023/07/17 02:27:40;;;;;;;2.95;1.80;;;;;;;20.94;54.85;100509.63;10476223;28;20049;-73
2023/07/17 02:32:42;;;;;;;2.30;1.95;;;;;;;20.96;54.31;100506.50;10483108;28;20041;-73
2023/07/17 02:37:44;;;;;;;2.75;1.92;;;;;;;21.00;54.78;100490.66;10464991;28;20052;-73
2023/07/17 02:42:46;;;;;;;2.22;1.90;;;;;;;21.08;53.93;100482.16;10465945;28;20044;-73
2023/07/17 02:47:48;;;;;;;5.70;2.17;;;;;;;20.97;54.81;100481.03;10484025;28;20036;-73
2023/07/17 02:52:50;;;;;;;5.85;2.28;;;;;;;21.01;53.98;100483.94;10471723;28;20036;-73
2023/07/17 02:57:52;;;;;;;3.58;2.30;;;;;;;20.94;55.06;100484.53;10489020;28;20045;-73
2023/07/17 03:02:55;;;;;;;3.38;1.88;;;;;;;21.03;54.48;100499.16;10487832;28;20391;-73
2023/07/17 03:07:57;;;;;;;5.25;2.45;;;;;;;20.82;55.53;100503.28;10459009;28;20045;-73
2023/07/17 03:13:01;;;;;;;3.85;2.20;;;;;;;20.90;55.30;100496.75;10461849;28;20044;-73
2023/07/17 03:18:04;;;;;;;4.07;2.20;;;;;;;20.93;55.74;100499.66;10458503;28;20040;-73
2023/07/17 03:23:07;;;;;;;2.30;1.77;;;;;;;20.94;55.43;100498.47;10471360;28;20458;-73
2023/07/17 03:28:09;;;;;;;2.53;2.20;;;;;;;20.94;56.08;100497.66;10470149;28;20052;-72
2023/07/17 03:33:11;;;;;;;3.10;2.20;;;;;;;20.94;56.09;100503.25;10445021;28;20048;-73
2023/07/17 03:38:13;;;;;;;6.25;2.22;;;;;;;21.03;56.01;100517.88;10468938;28;20049;-73
2023/07/17 03:43:15;;;;;;;3.22;2.03;;;;;;;20.68;58.08;100521.22;10485755;28;20064;-73
2023/07/17 03:48:18;;;;;;;5.25;2.17;;;;;;;19.98;62.98;100506.63;10481588;28;20052;-73
2023/07/17 03:53:20;;;;;;;5.13;2.53;;;;;;;19.65;66.60;100514.25;10471847;28;20056;-73
2023/07/17 03:58:23;;;;;;;3.80;2.58;;;;;;;19.72;66.82;100511.72;10453646;28;20041;-73
2023/07/17 04:03:25;;;;;;;4.93;2.60;;;;;;;19.80;66.71;100510.81;10470971;28;20493;-73
2023/07/17 04:08:29;;;;;;;4.38;2.90;;;;;;;19.51;68.52;100503.41;10446128;28;20045;-74
2023/07/17 04:13:32;;;;;;;3.47;2.53;;;;;;;19.52;69.27;100489.16;10432251;28;20047;-74
2023/07/17 04:18:35;;;;;;;6.20;2.80;;;;;;;19.70;68.48;100497.31;10485273;28;20040;-75
2023/07/17 04:23:38;;;;;;;6.07;2.88;;;;;;;19.81;68.16;100492.94;10467535;28;20055;-74
2023/07/17 04:28:43;;;;;;;3.67;2.60;;;;;;;19.97;68.00;100487.50;10468220;28;20048;-74
2023/07/17 04:33:46;;;;;;;3.33;2.50;;;;;;;20.33;67.22;100495.00;10466914;28;20056;-73
2023/07/17 04:38:49;;;;;;;4.15;2.38;;;;;;;20.47;67.63;100481.53;10486740;28;20056;-75
2023/07/17 04:43:51;;;;;;;4.18;2.65;;;;;;;20.72;67.65;100483.09;10483757;28;20037;-73
2023/07/17 04:48:54;;;;;;;5.15;3.13;;;;;;;20.62;67.49;100480.78;10484478;28;20419;-74
2023/07/17 04:53:57;;;;;;;3.63;2.25;;;;;;;20.39;68.80;100488.84;10452295;28;20045;-74
2023/07/17 04:58:59;;;;;;;4.65;2.58;;;;;;;20.24;69.42;100478.41;10479696;28;20049;-73
2023/07/17 05:04:03;;;;;;;4.80;2.72;;;;;;;20.34;70.54;100497.44;10480780;28;20411;-73
2023/07/17 05:09:06;;;;;;;4.60;2.58;;;;;;;20.38;69.69;100498.38;10464021;28;20052;-74
2023/07/17 05:14:09;;;;;;;5.05;2.90;;;;;;;20.66;69.78;100504.03;10443043;28;20037;-74
2023/07/17 05:19:11;;;;;;;4.20;2.90;;;;;;;20.94;69.50;100515.22;10466276;28;20033;-74
2023/07/17 05:24:14;;;;;;;4.60;3.00;;;;;;;20.31;71.44;100514.06;10455365;28;20048;-74
2023/07/17 05:29:18;;;;;;;3.63;2.75;;;;;;;19.72;72.88;100522.84;10456894;28;20519;-74
2023/07/17 05:34:21;;;;;;;6.03;2.70;;;;;;;19.47;75.38;100522.78;10436604;28;20415;-79
2023/07/17 05:39:23;;;;;;;3.97;2.58;;;;;;;19.12;78.15;100515.94;10450622;28;20041;-73
2023/07/17 05:44:26;;;;;;;6.50;3.03;;;;;;;18.78;81.42;100515.06;10465002;28;20048;-74
2023/07/17 05:49:29;;;;;;;6.93;3.53;;;;;;;18.43;86.15;100513.66;10467863;28;20507;-75
2023/07/17 05:54:31;;;;;;;6.20;3.17;;;;;;;18.33;87.76;100521.22;10467746;28;20447;-73
2023/07/17 05:59:33;;;;;;;5.22;3.40;;;;;;;18.18;87.88;100530.13;10485280;28;20044;-73
2023/07/17 06:04:35;;;;;;;6.38;3.83;;;;;;;18.39;87.52;100514.31;10467425;28;20499;-73
2023/07/17 06:09:37;;;;;;;7.88;4.10;;;;;;;18.32;89.90;100519.59;10474489;28;20040;-73
2023/07/17 06:14:40;;;;;;;6.97;3.22;;;;;;;18.25;91.53;100527.66;10442380;28;20519;-73
2023/07/17 06:19:43;;;;;;;8.35;4.15;;;;;;;18.37;92.94;100527.72;10448165;28;20529;-73
2023/07/17 06:24:45;;;;;;;4.55;3.58;;;;;;;18.30;93.76;100530.25;10451271;28;20423;-74
2023/07/17 06:29:47;;;;;;;7.10;3.70;;;;;;;18.50;92.28;100539.75;10463920;28;20049;-73
2023/07/17 06:34:49;;;;;;;6.03;3.72;;;;;;;18.44;93.08;100543.09;10492706;28;20048;-73
2023/07/17 06:39:51;;;;;;;6.00;4.13;;;;;;;18.41;92.64;100539.00;10492027;28;20071;-74
2023/07/17 06:44:54;;;;;;;5.30;4.00;;;;;;;18.39;94.42;100530.16;10492017;28;20036;-74
2023/07/17 06:49:57;;;;;;;9.63;5.00;;;;;;;18.38;96.22;100523.81;10491392;28;20533;-73
2023/07/17 06:54:59;;;;;;;8.45;4.90;;;;;;;18.13;96.58;100533.09;10490729;28;20052;-73
2023/07/17 07:00:05;;;;;;;9.07;5.20;;;;;;;18.31;97.22;100531.06;10490159;28;20052;-73
2023/07/17 07:05:07;;;;;;;8.57;5.50;;;;;;;18.72;95.84;100538.66;10486877;28;20057;-74
2023/07/17 07:10:10;;;;;;;10.18;5.55;;;;;;;19.06;95.67;100533.97;10491199;28;20045;-73
2023/07/17 07:15:12;;;;;;;11.18;5.85;;;;;;;19.26;94.49;100524.78;10490416;28;20060;-73
2023/07/17 07:20:14;;;;;;;10.10;6.38;;;;;;;19.44;91.57;100537.38;10490436;28;20499;-74
2023/07/17 07:25:16;;;;;;;16.55;7.75;;;;;;;19.36;91.83;100538.25;10490258;28;20040;-73
2023/07/17 07:30:18;;;;;;;7.82;5.65;;;;;;;19.41;91.34;100543.59;10488773;28;20384;-73
2023/07/17 07:35:20;;;;;;;12.25;7.40;;;;;;;19.48;90.49;100545.84;10489642;28;20052;-73
2023/07/17 07:40:23;;;;;;;29.13;12.98;;;;;;;19.45;91.04;100544.56;10489628;28;20052;-74
2023/07/17 07:45:25;;;;;;;21.73;10.85;;;;;;;19.23;91.98;100554.09;10489698;28;20131;-74
2023/07/17 07:50:27;;;;;;;15.82;7.60;;;;;;;18.93;92.70;100558.13;10489310;28;20404;-74
2023/07/17 07:55:29;;;;;;;12.85;6.97;;;;;;;19.39;92.53;100545.91;10489063;28;20053;-74
2023/07/17 08:00:32;;;;;;;12.00;6.53;;;;;;;19.97;88.77;100551.56;10488172;28;20029;-74
2023/07/17 08:05:34;;;;;;;9.35;6.30;;;;;;;21.08;84.70;100557.47;10448281;28;20060;-73
2023/07/17 08:10:38;;;;;;;9.82;5.57;;;;;;;22.32;79.66;100544.47;10447786;28;20038;-74
2023/07/17 08:15:41;;;;;;;6.88;4.55;;;;;;;23.33;74.59;100543.53;10446686;28;20060;-74
2023/07/17 08:20:43;;;;;;;10.60;5.05;;;;;;;23.56;72.29;100551.97;10446856;28;20061;-75
2023/07/17 08:25:45;;;;;;;6.38;4.28;;;;;;;23.39;71.40;100544.84;10482064;28;20049;-74
2023/07/17 08:30:50;;;;;;;5.63;3.92;;;;;;;22.71;74.20;100542.56;10487461;28;20045;-74
2023/07/17 08:35:53;;;;;;;7.35;4.20;;;;;;;22.13;74.52;100546.00;10474812;28;20057;-74
2023/07/17 08:40:55;;;;;;;3.50;2.90;;;;;;;21.58;77.25;100550.56;10478864;28;20048;-74
2023/07/17 08:45:57;;;;;;;4.65;2.75;;;;;;;21.28;77.13;100547.31;10445796;28;20060;-73
2023/07/17 08:51:00;;;;;;;2.70;2.30;;;;;;;21.75;74.67;100549.41;10444623;28;20053;-75
2023/07/17 08:56:02;;;;;;;3.83;2.30;;;;;;;22.83;69.07;100548.88;10476437;28;20063;-73
2023/07/17 09:01:05;;;;;;;2.72;2.45;;;;;;;23.23;69.32;100558.91;10486154;28;20044;-75
2023/07/17 09:06:07;;;;;;;2.30;2.10;;;;;;;24.89;63.05;100545.38;10486562;28;20047;-75
2023/07/17 09:11:10;;;;;;;3.72;2.67;;;;;;;25.56;60.73;100548.25;10468767;28;20040;-74
2023/07/17 09:16:14;;;;;;;3.47;2.30;;;;;;;26.29;55.76;100542.91;10486235;28;20048;-74
2023/07/17 09:21:20;;;;;;;2.42;1.90;;;;;;;26.03;56.52;100547.53;10485952;28;20041;-74
2023/07/17 09:26:24;;;;;;;3.13;2.17;;;;;;;24.69;58.69;100541.91;10485910;28;20052;-75
2023/07/17 09:31:31;;;;;;;5.63;2.80;;;;;;;25.07;57.42;100538.03;10485763;28;20041;-75
2023/07/17 09:36:33;;;;;;;4.50;2.50;;;;;;;24.35;58.87;100544.59;10485740;28;20404;-75
2023/07/17 09:41:35;;;;;;;3.30;2.50;;;;;;;23.98;60.41;100547.19;10485752;28;20045;-75
2023/07/17 09:46:38;;;;;;;2.10;1.90;;;;;;;23.87;59.61;100553.78;10482545;28;20048;-75
2023/07/17 09:51:40;;;;;;;4.43;2.22;;;;;;;23.44;61.14;100550.16;10444266;28;20674;-75
2023/07/17 09:56:43;;;;;;;4.18;2.00;;;;;;;23.05;59.68;100544.53;10451111;28;20061;-75
2023/07/17 10:01:51;;;;;;;5.28;2.17;;;;;;;23.06;60.31;100546.16;10433769;28;20062;-75
2023/07/17 10:06:54;;;;;;;10.90;6.07;;;;;;;23.16;60.01;100548.38;10449068;28;20046;-75
2023/07/17 10:11:56;;;;;;;3.38;2.13;;;;;;;22.95;58.81;100544.34;10450435;28;20534;-75
2023/07/17 10:16:58;;;;;;;2.13;1.75;;;;;;;22.72;60.14;100544.19;10451671;28;20049;-74
2023/07/17 10:22:01;;;;;;;3.05;2.00;;;;;;;22.60;61.36;100538.75;10451565;28;20443;-74
2023/07/17 10:27:03;;;;;;;2.30;1.77;;;;;;;22.88;59.41;100538.56;10451139;28;20057;-74
2023/07/17 10:32:12;;;;;;;3.28;1.80;;;;;;;23.06;60.08;100546.16;10451256;28;20041;-74
2023/07/17 10:37:30;;;;;;;7.63;3.38;;;;;;;23.13;59.58;100539.94;10450613;28;20049;-75
2023/07/17 10:42:32;;;;;;;5.80;3.03;;;;;;;23.17;59.46;100543.59;10451229;28;20060;-74
2023/07/17 10:47:34;;;;;;;5.25;3.90;;;;;;;23.53;58.52;100541.50;10450686;28;20559;-75
2023/07/17 10:52:37;;;;;;;5.60;1.80;;;;;;;23.28;58.08;100546.63;10450337;28;20049;-74
2023/07/17 10:57:39;;;;;;;4.95;1.60;;;;;;;23.23;57.04;100549.69;10450659;28;20492;-74
2023/07/17 11:02:41;;;;;;;2.70;1.63;;;;;;;23.23;56.89;100553.31;10432602;28;20040;-74
2023/07/17 11:07:43;;;;;;;3.05;1.70;;;;;;;23.15;56.04;100546.78;10449079;28;20512;-75
2023/07/17 11:12:45;;;;;;;2.53;1.60;;;;;;;23.09;54.85;100550.25;10449786;28;20046;-75
2023/07/17 11:17:47;;;;;;;3.08;1.73;;;;;;;22.82;54.98;100536.06;10449285;28;20064;-73
2023/07/17 11:22:50;;;;;;;4.18;1.45;;;;;;;22.87;53.70;100543.34;10449127;28;20048;-74
2023/07/17 11:27:53;;;;;;;1.73;1.15;;;;;;;23.08;53.46;100545.78;10477062;28;20045;-74
2023/07/17 11:32:57;;;;;;;1.55;1.30;;;;;;;23.18;52.45;100534.03;10489724;28;20060;-74
2023/07/17 11:38:03;;;;;;;1.33;1.23;;;;;;;23.11;53.00;100531.91;10472278;28;20400;-74
2023/07/17 11:43:05;;;;;;;1.73;1.30;;;;;;;23.09;53.73;100530.66;10488570;28;20049;-74
2023/07/17 11:48:08;;;;;;;2.05;1.25;;;;;;;23.37;53.41;100538.78;10489109;28;20084;-74
2023/07/17 11:53:13;;;;;;;2.05;1.38;;;;;;;23.47;53.26;100538.22;10490027;28;20045;-74
2023/07/17 11:58:18;;;;;;;1.67;1.40;;;;;;;23.49;52.48;100540.63;10488961;28;20072;-74
2023/07/17 12:03:20;;;;;;;1.58;1.33;;;;;;;23.15;53.09;100532.78;10471428;28;20057;-74
2023/07/17 12:08:22;;;;;;;2.35;1.40;;;;;;;22.97;54.46;100530.78;10489094;28;20037;-74
2023/07/17 12:13:24;;;;;;;2.85;1.58;;;;;;;23.17;53.90;100536.00;10487984;28;20078;-75
2023/07/17 12:18:26;;;;;;;4.30;1.75;;;;;;;23.07;55.07;100533.78;10469891;28;20083;-74
2023/07/17 12:23:28;;;;;;;4.80;2.17;;;;;;;22.94;55.45;100537.13;10488912;28;20056;-74
2023/07/17 12:28:31;;;;;;;1.75;1.60;;;;;;;22.98;54.25;100546.41;10488137;28;20045;-74
2023/07/17 12:33:33;;;;;;;2.97;1.77;;;;;;;22.77;55.58;100538.31;10488229;28;20879;-74
2023/07/17 12:38:35;;;;;;;2.22;1.52;;;;;;;22.74;55.29;100545.47;10487196;28;20049;-73
2023/07/17 12:43:37;;;;;;;3.08;1.80;;;;;;;22.99;55.47;100539.63;10487502;28;20037;-73
2023/07/17 12:48:39;;;;;;;3.38;1.58;;;;;;;22.93;54.71;100532.72;10487294;28;20059;-74
2023/07/17 12:53:41;;;;;;;3.08;1.95;;;;;;;22.82;54.78;100530.47;10487269;28;20036;-74
2023/07/17 12:58:44;;;;;;;4.65;2.00;;;;;;;22.88;54.64;100521.78;10467726;28;20048;-74
2023/07/17 13:03:46;;;;;;;2.58;1.95;;;;;;;22.90;54.39;100525.03;10484202;28;20052;-74
2023/07/17 13:08:49;;;;;;;3.00;2.30;;;;;;;22.70;55.42;100524.97;10486466;28;20049;-74
2023/07/17 13:13:51;;;;;;;3.67;2.10;;;;;;;22.91;56.23;100516.28;10486304;28;20044;-74
2023/07/17 13:18:55;;;;;;;2.60;2.30;;;;;;;22.83;56.72;100515.31;10468198;28;20049;-74
2023/07/17 13:23:58;;;;;;;3.95;2.10;;;;;;;22.81;57.76;100514.84;10485453;28;20049;-74
2023/07/17 13:29:01;;;;;;;3.70;2.05;;;;;;;22.91;56.79;100516.28;10466914;28;20410;-74
2023/07/17 13:34:03;;;;;;;3.45;2.40;;;;;;;22.70;58.27;100522.19;10468037;28;20495;-74
2023/07/17 13:39:05;;;;;;;3.42;2.30;;;;;;;22.59;57.44;100515.56;10484514;28;20052;-74
2023/07/17 13:44:07;;;;;;;4.97;2.20;;;;;;;22.68;55.61;100507.75;10485527;28;20392;-74
2023/07/17 13:49:10;;;;;;;4.15;1.83;;;;;;;22.69;53.74;100497.38;10485900;28;20037;-74
2023/07/17 13:54:12;;;;;;;4.20;2.05;;;;;;;22.79;52.09;100496.81;10484766;28;20059;-74
2023/07/17 13:59:14;;;;;;;2.53;1.60;;;;;;;22.71;50.25;100489.41;10483886;28;20049;-74
2023/07/17 14:04:16;;;;;;;2.15;1.20;;;;;;;22.60;49.41;100505.19;10467422;28;20041;-72
2023/07/17 14:09:19;;;;;;;3.00;1.50;;;;;;;22.59;48.79;100512.75;10467122;28;20056;-74
2023/07/17 14:14:22;;;;;;;2.78;1.73;;;;;;;22.48;50.22;100509.72;10484130;28;20049;-74
2023/07/17 14:19:24;;;;;;;2.20;1.60;;;;;;;22.39;49.36;100497.94;10484175;28;20053;-74
2023/07/17 14:24:26;;;;;;;2.38;1.55;;;;;;;22.31;48.79;100506.50;10484911;28;20044;-74
2023/07/17 14:29:28;;;;;;;2.30;1.73;;;;;;;22.40;48.18;100496.75;10466714;28;20415;-74
2023/07/17 14:34:30;;;;;;;2.25;1.27;;;;;;;22.42;47.83;100499.19;10485168;28;20041;-74
2023/07/17 14:39:32;;;;;;;3.17;1.08;;;;;;;22.30;46.06;100494.50;10480892;28;20518;-74
2023/07/17 14:44:34;;;;;;;3.55;1.40;;;;;;;22.12;48.04;100501.66;10490617;28;20049;-74
2023/07/17 14:49:37;;;;;;;2.17;1.40;;;;;;;21.83;48.84;100505.69;10486505;28;20069;-74
2023/07/17 14:54:39;;;;;;;2.22;1.50;;;;;;;21.79;49.62;100514.00;10492398;28;20041;-74
2023/07/17 14:59:42;;;;;;;2.60;1.45;;;;;;;21.70;51.36;100507.78;10491594;28;20423;-73
2023/07/17 15:04:44;;;;;;;3.40;1.60;;;;;;;21.83;51.82;100516.88;10455927;28;20038;-73
2023/07/17 15:09:46;;;;;;;2.40;1.60;;;;;;;21.78;52.27;100509.56;10449942;28;20115;-74
2023/07/17 15:14:48;;;;;;;5.63;1.80;;;;;;;21.80;52.36;100506.41;10449708;28;20056;-74
2023/07/17 15:19:50;;;;;;;4.35;1.63;;;;;;;21.72;52.78;100515.81;10431603;28;20046;-74
2023/07/17 15:24:52;;;;;;;3.05;1.80;;;;;;;21.60;53.41;100511.91;10449003;28;20048;-74
2023/07/17 15:29:54;;;;;;;3.72;2.20;;;;;;;21.44;54.37;100504.69;10448321;28;20045;-74
2023/07/17 15:34:57;;;;;;;4.35;3.15;;;;;;;21.20;55.66;100511.19;10467525;28;20412;-73
2023/07/17 15:39:59;;;;;;;3.38;1.90;;;;;;;21.22;56.49;100512.44;10466298;28;20065;-73
2023/07/17 15:45:03;;;;;;;4.10;2.05;;;;;;;21.07;57.21;100502.03;10486265;28;20056;-73
2023/07/17 15:50:07;;;;;;;3.28;1.58;;;;;;;20.87;58.50;100492.72;10488823;28;20045;-73
2023/07/17 15:55:09;;;;;;;6.25;2.03;;;;;;;20.90;57.37;100492.00;10455140;28;20037;-74
2023/07/17 16:00:11;;;;;;;3.05;1.80;;;;;;;20.87;57.53;100486.31;10489196;28;20051;-74
2023/07/17 16:05:14;;;;;;;4.07;1.85;;;;;;;21.01;57.27;100481.97;10489354;28;20415;-74
2023/07/17 16:10:16;;;;;;;2.38;1.83;;;;;;;21.02;56.95;100466.84;10489128;28;20036;-73
2023/07/17 16:15:18;;;;;;;4.05;1.60;;;;;;;21.04;56.28;100464.50;10471355;28;20033;-73
2023/07/17 16:20:20;;;;;;;5.35;2.38;;;;;;;21.00;56.03;100462.75;10488735;28;20118;-74
2023/07/17 16:25:22;;;;;;;4.10;2.08;;;;;;;21.02;55.96;100468.81;10483744;28;20049;-73
2023/07/17 16:30:24;;;;;;;3.78;1.70;;;;;;;21.07;56.07;100465.78;10416569;28;20053;-73
2023/07/17 16:35:27;;;;;;;3.60;2.05;;;;;;;21.02;56.23;100466.03;10481901;28;20041;-73
2023/07/17 16:40:30;;;;;;;4.78;2.35;;;;;;;20.92;56.19;100467.34;10487511;28;20044;-75
2023/07/17 16:45:32;;;;;;;5.10;2.22;;;;;;;20.91;56.60;100470.50;10459663;28;20045;-73
2023/07/17 16:50:34;;;;;;;4.03;2.00;;;;;;;20.82;56.42;100459.47;10446180;28;20049;-73
2023/07/17 16:55:36;;;;;;;3.65;1.83;;;;;;;20.76;57.27;100455.31;10444745;28;20057;-73
2023/07/17 17:00:38;;;;;;;6.43;2.03;;;;;;;20.87;57.52;100458.44;10462132;28;20048;-74
2023/07/17 17:05:40;;;;;;;5.80;2.15;;;;;;;20.74;57.48;100458.47;10466190;28;20542;-73
2023/07/17 17:10:43;;;;;;;4.22;2.00;;;;;;;20.81;56.52;100457.84;10445258;28;20044;-74
2023/07/17 17:15:45;;;;;;;6.00;1.73;;;;;;;20.90;56.94;100447.38;10466563;28;20439;-73
2023/07/17 17:20:49;;;;;;;5.38;2.00;;;;;;;20.82;56.79;100448.31;10460890;28;20046;-74
2023/07/17 17:25:51;;;;;;;4.20;1.65;;;;;;;20.78;57.45;100451.00;10444797;28;20053;-74
2023/07/17 17:30:53;;;;;;;3.60;1.33;;;;;;;20.72;57.52;100449.66;10444047;28;20056;-74
2023/07/17 17:35:56;;;;;;;3.55;1.58;;;;;;;20.58;58.31;100442.84;10454600;28;20040;-73
2023/07/17 17:40:58;;;;;;;2.15;1.70;;;;;;;20.49;58.69;100443.00;10464920;28;20499;-74
2023/07/17 17:46:01;;;;;;;5.82;1.83;;;;;;;20.37;58.66;100440.19;10477488;28;20036;-75
2023/07/17 17:51:03;;;;;;;9.93;1.95;;;;;;;20.26;59.01;100431.50;10477314;28;20060;-74
2023/07/17 17:56:05;;;;;;;7.57;2.25;;;;;;;20.16;60.22;100435.59;10467064;28;20414;-74
2023/07/17 18:01:07;;;;;;;5.70;1.65;;;;;;;20.05;60.09;100440.00;10484906;28;20045;-74
2023/07/17 18:06:10;;;;;;;2.92;1.70;;;;;;;19.89;61.02;100439.09;10484755;28;20044;-74
2023/07/17 18:11:12;;;;;;;4.88;1.77;;;;;;;19.73;61.70;100432.59;10484144;28;20053;-74
2023/07/17 18:16:14;;;;;;;5.88;1.90;;;;;;;19.69;62.89;100437.25;10474988;28;20033;-74
2023/07/17 18:21:17;;;;;;;3.05;1.40;;;;;;;19.55;63.12;100437.56;10451011;28;20049;-74
2023/07/17 18:26:19;;;;;;;2.03;1.40;;;;;;;19.55;63.89;100432.81;10467113;28;20041;-75
2023/07/17 18:31:21;;;;;;;3.70;1.50;;;;;;;19.45;64.58;100433.25;10483561;28;20041;-75
2023/07/17 18:36:24;;;;;;;4.53;2.22;;;;;;;19.37;65.00;100428.59;10483638;28;20048;-75
2023/07/17 18:41:26;;;;;;;3.83;1.65;;;;;;;19.40;65.26;100430.66;10474359;28;20048;-74
2023/07/17 18:46:28;;;;;;;6.07;1.60;;;;;;;19.42;65.16;100430.31;10485506;28;20055;-75
2023/07/17 18:51:30;;;;;;;3.42;1.83;;;;;;;19.42;65.20;100428.34;10461270;28;20488;-74
2023/07/17 18:56:33;;;;;;;6.72;1.83;;;;;;;19.42;64.71;100439.47;10485739;28;20044;-75
2023/07/17 19:01:35;;;;;;;4.18;1.52;;;;;;;19.43;64.96;100429.97;10491359;28;20052;-74
2023/07/17 19:06:38;;;;;;;4.03;1.50;;;;;;;19.38;65.44;100426.63;10475536;28;20389;-75
2023/07/17 19:11:40;;;;;;;4.53;1.60;;;;;;;19.36;65.25;100426.16;10481745;28;20029;-74
2023/07/17 19:16:42;;;;;;;5.13;1.75;;;;;;;19.41;65.93;100421.16;10481777;28;20072;-74
2023/07/17 19:21:45;;;;;;;5.45;2.33;;;;;;;19.39;66.13;100429.06;10481201;28;20052;-74
2023/07/17 19:26:47;;;;;;;5.10;1.70;;;;;;;19.30;66.08;100424.75;10477917;28;20055;-75
2023/07/17 19:31:49;;;;;;;4.07;1.77;;;;;;;19.29;66.58;100437.88;10488262;28;20052;-74
2023/07/17 19:36:51;;;;;;;5.32;2.60;;;;;;;19.19;67.16;100429.94;10478788;28;20041;-74
2023/07/17 19:41:53;;;;;;;7.82;1.83;;;;;;;19.17;67.65;100427.50;10482407;28;20041;-75
2023/07/17 19:46:58;;;;;;;4.30;2.03;;;;;;;19.12;68.20;100424.13;10459822;28;20044;-75
2023/07/17 19:52:00;;;;;;;7.82;2.10;;;;;;;19.06;68.47;100414.38;10483833;28;20048;-73
2023/07/17 19:57:02;;;;;;;2.38;1.83;;;;;;;19.05;68.72;100413.56;10476007;28;20107;-74
2023/07/17 20:02:04;;;;;;;6.15;2.05;;;;;;;19.03;69.09;100415.06;10473164;28;20052;-74
2023/07/17 20:07:06;;;;;;;3.28;1.98;;;;;;;19.02;69.34;100407.88;10488314;28;20064;-74
2023/07/17 20:12:09;;;;;;;4.82;2.45;;;;;;;18.90;69.97;100406.69;10483681;28;20033;-73
2023/07/17 20:17:11;;;;;;;4.55;2.28;;;;;;;18.88;69.64;100411.78;10454853;28;20041;-73
2023/07/17 20:22:13;;;;;;;6.15;2.15;;;;;;;18.83;70.33;100411.19;10466874;28;20036;-75
2023/07/17 20:27:15;;;;;;;4.18;2.08;;;;;;;18.77;69.92;100410.59;10467992;28;20450;-73
2023/07/17 20:32:17;;;;;;;5.40;2.72;;;;;;;18.74;70.31;100405.69;10487799;28;20045;-74
2023/07/17 20:37:19;;;;;;;5.10;2.30;;;;;;;18.78;70.52;100406.66;10485185;28;20523;-74
2023/07/17 20:47:46;;;;;;;3.88;2.47;;;;;;;18.63;71.32;100399.75;10485062;28;20499;-75
2023/07/17 20:52:48;;;;;;;6.60;2.80;;;;;;;18.57;71.42;100395.53;10481038;28;20048;-74
2023/07/17 20:57:50;;;;;;;5.93;2.55;;;;;;;18.58;72.04;100399.13;10485018;28;20044;-74
2023/07/17 21:02:52;;;;;;;5.22;2.35;;;;;;;18.46;72.37;100401.84;10480298;28;20056;-74
2023/07/17 21:07:54;;;;;;;6.07;2.55;;;;;;;18.45;72.22;100398.25;10482193;28;20429;-75
2023/07/17 21:12:57;;;;;;;4.50;2.70;;;;;;;18.35;72.32;100390.31;10484880;28;20051;-75
2023/07/17 21:17:59;;;;;;;4.38;2.42;;;;;;;18.35;72.72;100393.09;10461734;28;20790;-75
2023/07/17 21:23:01;;;;;;;6.35;2.50;;;;;;;18.34;73.30;100395.06;10482403;28;20044;-75
2023/07/17 21:28:05;;;;;;;6.57;3.45;;;;;;;18.32;73.41;100397.38;10466796;28;20055;-75
2023/07/17 21:33:08;;;;;;;3.97;2.60;;;;;;;18.28;73.92;100387.28;10467656;28;20048;-75
2023/07/17 21:38:10;;;;;;;4.60;3.17;;;;;;;18.22;74.29;100397.81;10462150;28;20060;-75
2023/07/17 21:43:12;;;;;;;5.60;2.70;;;;;;;18.16;74.53;100393.56;10474209;28;20049;-74
2023/07/17 21:48:14;;;;;;;7.65;2.67;;;;;;;18.17;74.52;100388.84;10438677;28;20045;-75
2023/07/17 21:53:17;;;;;;;6.88;2.50;;;;;;;18.20;74.57;100388.16;10488327;28;20060;-74
2023/07/17 21:58:19;;;;;;;3.88;2.83;;;;;;;18.17;74.70;100392.41;10483939;28;20044;-74
2023/07/17 22:03:21;;;;;;;6.88;2.53;;;;;;;18.07;75.09;100384.50;10481949;28;20547;-74
2023/07/17 22:08:23;;;;;;;4.55;2.78;;;;;;;18.04;74.75;100382.38;10461999;28;20044;-74
2023/07/17 22:13:26;;;;;;;3.88;2.38;;;;;;;18.03;74.57;100369.66;10470517;28;20041;-74
2023/07/17 22:18:28;;;;;;;5.28;2.67;;;;;;;18.03;74.81;100369.66;10468364;28;20745;-73
2023/07/17 22:23:30;;;;;;;6.90;2.95;;;;;;;18.01;74.40;100374.72;10479156;28;20044;-73
2023/07/17 22:28:33;;;;;;;3.72;2.90;;;;;;;18.00;74.56;100370.34;10452479;28;20511;-73
2023/07/17 22:33:35;;;;;;;7.22;2.70;;;;;;;18.08;74.17;100369.47;10459583;28;20032;-74
2023/07/17 22:38:37;;;;;;;7.05;2.83;;;;;;;18.07;74.31;100351.19;10488097;28;20509;-73
2023/07/17 22:43:40;;;;;;;9.20;3.42;;;;;;;18.08;73.76;100347.25;10482586;28;20406;-73
2023/07/17 22:48:42;;;;;;;6.15;2.72;;;;;;;18.06;73.79;100333.72;10462493;28;20049;-74
2023/07/17 22:53:44;;;;;;;6.70;3.28;;;;;;;18.17;73.46;100353.53;10450468;28;20037;-73
2023/07/17 22:58:46;;;;;;;5.65;2.55;;;;;;;18.12;73.50;100347.38;10462332;28;20411;-73
2023/07/17 23:03:48;;;;;;;6.38;2.80;;;;;;;18.11;73.58;100341.03;10472622;28;20040;-73
2023/07/17 23:08:52;;;;;;;5.82;2.88;;;;;;;18.01;74.81;100339.44;10477296;28;20581;-74
2023/07/17 23:13:55;;;;;;;4.68;2.65;;;;;;;18.03;74.43;100334.38;10482287;28;20056;-74